Fort Hill, Virginia
Current Conditions -  °F | °C
As of 12:54 PM on Sunday 21 Dec 2014 (Local Time) from KLYH Reporting Station
Clear Clear  
Wind Chill: 43°   Ceiling: Unl
Heat Index: 43°   Visibility: 10mi
Dew Point: 31°   Wind: 0mph
Humidity: 62%   Direction: NA
Pressure: 30.26"   Gusts: NA
Location:  37.3516°N, 79.2171°W
Report Text: KLYH 211754Z 00000KT 10SM CLR 06/M01 A3026 RMK AO2 SLP251 T00611006 10061 20006 58020
Loading
Personal Weather Stations






























Interactive Weather Map New forecast layout! Learn more

10-Day Weather Forecast

Advertisements
Track Severe Weather on mobile